Impacts METAR Board
IDs:

KPHX - Phoenix/Sky Harbor, AZ, US

Updated at: 2300 UTC 02 Oct 2022
Potential Impact None Slight Moderate High
Time 02/11Z 02/12Z 02/13Z 02/14Z 02/15Z 02/16Z 02/17Z 02/18Z 02/19Z 02/20Z 02/21Z 02/22Z 02/23Z
Temp80 80 79 79 81 83 88 90 91 94 94 96 96
Dewpt61 61 61 61 60 60 60 58 56 55 53 52 52
Altim29.84 29.85 29.85 29.89 29.90 29.92 29.92 29.91 29.90 29.87 29.84 29.83 29.81
VIS10 10 10 10 10 10 10 10 10 10 10 10 10
CIG-- -- -- -- -- -- -- -- -- -- -- -- --
CoverSCTCLRFEWFEWFEWFEWFEWFEWFEWFEWSCTSCTSCT
FltCatVFRVFRVFRVFRVFRVFRVFRVFRVFRVFRVFRVFRVFR
WX--------------------------
WDir1301209010011080160130120001700
WSpd7 4 6 6 4 4 6 5 6 3 3 10 3
WGst-- -- -- -- -- -- -- -- -- -- -- 15 --
Raw hourly METARs
KPHX 021051Z 13007KT 10SM SCT100 27/16 A2984 RMK AO2 SLP085 T02670161 $
KPHX 021151Z 12004KT 10SM CLR 27/16 A2985 RMK AO2 SLP086 T02670161 10306 20267 51005 $
KPHX 021251Z 09006KT 10SM FEW100 26/16 A2985 RMK AO2 SLP090 T02610161 $
KPHX 021351Z 10006KT 10SM FEW100 FEW150 26/16 A2989 RMK AO2 SLP101 T02610161 $
KPHX 021451Z 11004KT 10SM FEW100 FEW150 27/16 A2990 RMK AO2 SLP106 T02720156 53018 $
KPHX 021551Z 08004KT 10SM FEW100 FEW150 28/16 A2992 RMK AO2 SLP112 T02830156 $
KPHX 021651Z 16006KT 10SM FEW100 FEW160 31/16 A2992 RMK AO2 SLP112 T03110156 $
KPHX 021751Z 13005KT 10SM FEW100 FEW200 32/14 A2991 RMK AO2 SLP109 T03220144 10322 20256 50003 $
KPHX 021851Z 12006KT 10SM FEW100 FEW250 33/13 A2990 RMK AO2 SLP104 TCU DSNT NW T03280133 $
KPHX 021951Z VRB03KT 10SM FEW100 FEW250 34/13 A2987 RMK AO2 SLP095 CB DSNT NW T03440128 $
KPHX 022051Z VRB03KT 10SM FEW100 SCT250 34/12 A2984 RMK AO2 SLP084 CB DSNT NW T03440117 58023 $
KPHX 022151Z 17010G15KT 10SM FEW100 SCT250 36/11 A2983 RMK AO2 SLP079 CB DSNT NW-N TCU DSNT SE T03560111 $
KPHX 022251Z VRB03KT 10SM FEW100 SCT250 36/11 A2981 RMK AO2 SLP074 CB DSNT NW-N TCU DSNT SE T03560111 $



Page loaded:  23:45 UTC  |   04:45 PM Pacific  |   05:45 PM Mountain  |   06:45 PM Central  |   07:45 PM Eastern

 

ADVISORIES

FORECASTS

FORECASTS

OBSERVATIONS

USER TOOLS

ABOUT US